Abbeville, AL

7:27 AM CST on November 12, 2019 (GMT -0600)
Martin Drive | | Change Station
Active Advisory: Freeze Warning

Elev 387 ft 31.56 °N, 85.25 °W | Updated 15 seconds ago

Overcast
Overcast
50.7 °F
Feels Like 50.7 °F
N
3.4
Wind Variable Wind from NW
Gusts 4.5 mph

Today
High -- | Low -- °F
--% Chance of Precip.
Yesterday
High -- | Low -- °F
Precip. -- in
Pressure 30.02 in
Visibility 10.0 miles
Clouds Mostly Cloudy 600 ft
Mostly Cloudy 1200 ft
Overcast 7000 ft
Dew Point 50 °F
Humidity 99%
Rainfall 0.20 in
Snow Depth Not available.
6:06 AM 4:43 PM
Full, 100% visible
METAR KDHN 121253Z 32012KT 10SM -RA BKN006 BKN012 OVC070 13/12 A3003 RMK AO2 RAE22B47 PRESRR SLP165 P0001 T01280117
Pressure 30.02 in
Visibility 10.0 miles
Clouds Mostly Cloudy 600 ft
Mostly Cloudy 1200 ft
Overcast 7000 ft
Dew Point 50 °F
Humidity 99%
Rainfall 0.20 in
Snow Depth Not available.
6:06 AM 4:43 PM
Full, 100% visible
METAR KDHN 121253Z 32012KT 10SM -RA BKN006 BKN012 OVC070 13/12 A3003 RMK AO2 RAE22B47 PRESRR SLP165 P0001 T01280117

Get Your Daily Forecast Email!

Thanks for signing up!

Be on the lookout for a verification email in your inbox.

You'll start receiving severe weather alerts in your inbox..

×

10-Day Weather Forecast

Almanac

Astronomy

Nov. 12, 2019 Rise Set
Actual Time
Civil Twilight
Nautical Twilight
Astronomical Twilight
Moon
Length of Visible Light
Length of Day
Tomorrow will be .
, % of the Moon is Illuminated

Today's Extremes

State Highs State Lows

Community

WunderPhotos

Category 6

Welcome to Category 6. This is the collective home for Weather Underground's featured writeups by Dr. Jeff Masters (right), Bob Henson (left), Chris Burt, and other regular contributors.

Nearby

Air Quality

  Air Quality AQ Index Pollutant
Not available.

Snow Depth

Station Depth Elevation

Earthquake Activity

City Distance Mag. Time & Date
Minimum magnitude displayed is 2.5.

Coastal Water Temperatures

Place Temperature

Stations

Nearby Weather Stations

Station Location Temp. Windchill Dew Point Humidity Wind Precip. Elev Updated Type
                   

Watches & Warnings

Freeze Warning
Issued: 12:51 AM CST Nov. 12, 2019 – National Weather Service

... Freeze warning in effect from 11 PM EST /10 PM CST/ this
evening to 9 am EST /8 am CST/ Wednesday...

The National Weather Service in Tallahassee has issued a freeze
warning, which is in effect from 11 PM EST /10 PM CST/ this
evening to 9 am EST /8 am CST/ Wednesday. The freeze watch is no
longer in effect.

* Temperature... lows 27 to 32.

* Impacts... freeze conditions could kill crops and other
sensitive vegetation.

Precautionary/preparedness actions...

A freeze warning means sub-freezing temperatures are imminent or
highly likely. These conditions will kill crops and other
sensitive vegetation.